sensor_id;sensor_type;location;lat;lon;timestamp;P1;durP1;ratioP1;P2;durP2;ratioP2
30289;SDS011;17105;55.652;37.710;2023-02-18T00:00:13;44.28;;;16.38;;
30289;SDS011;17105;55.652;37.710;2023-02-18T00:00:48;43.83;;;15.63;;
30289;SDS011;17105;55.652;37.710;2023-02-18T00:01:22;39.47;;;16.00;;
30289;SDS011;17105;55.652;37.710;2023-02-18T00:01:57;45.33;;;16.45;;
30289;SDS011;17105;55.652;37.710;2023-02-18T00:02:31;41.05;;;16.08;;
30289;SDS011;17105;55.652;37.710;2023-02-18T00:03:05;40.97;;;16.05;;
30289;SDS011;17105;55.652;37.710;2023-02-18T00:03:39;44.75;;;15.68;;
30289;SDS011;17105;55.652;37.710;2023-02-18T00:04:13;39.40;;;16.42;;
30289;SDS011;17105;55.652;37.710;2023-02-18T00:04:48;41.38;;;15.60;;
30289;SDS011;17105;55.652;37.710;2023-02-18T00:05:22;42.47;;;16.92;;
30289;SDS011;17105;55.652;37.710;2023-02-18T00:05:57;44.35;;;16.58;;
30289;SDS011;17105;55.652;37.710;2023-02-18T00:06:32;41.55;;;16.70;;
30289;SDS011;17105;55.652;37.710;2023-02-18T00:07:07;41.42;;;16.20;;
30289;SDS011;17105;55.652;37.710;2023-02-18T00:07:41;41.65;;;15.77;;
30289;SDS011;17105;55.652;37.710;2023-02-18T00:08:16;47.35;;;16.17;;
30289;SDS011;17105;55.652;37.710;2023-02-18T00:08:51;42.55;;;15.60;;
30289;SDS011;17105;55.652;37.710;2023-02-18T00:09:26;43.58;;;16.45;;
30289;SDS011;17105;55.652;37.710;2023-02-18T00:10:00;38.65;;;15.77;;
30289;SDS011;17105;55.652;37.710;2023-02-18T00:10:34;42.28;;;16.65;;
30289;SDS011;17105;55.652;37.710;2023-02-18T00:11:09;40.03;;;16.50;;
30289;SDS011;17105;55.652;37.710;2023-02-18T00:11:44;43.17;;;15.88;;
30289;SDS011;17105;55.652;37.710;2023-02-18T00:12:17;48.75;;;17.13;;
30289;SDS011;17105;55.652;37.710;2023-02-18T00:12:53;46.38;;;16.08;;
30289;SDS011;17105;55.652;37.710;2023-02-18T00:13:28;38.40;;;16.00;;
30289;SDS011;17105;55.652;37.710;2023-02-18T00:14:04;43.08;;;16.20;;
30289;SDS011;17105;55.652;37.710;2023-02-18T00:14:41;42.88;;;17.15;;
30289;SDS011;17105;55.652;37.710;2023-02-18T00:15:15;43.30;;;15.50;;
30289;SDS011;17105;55.652;37.710;2023-02-18T00:15:49;43.38;;;15.90;;
30289;SDS011;17105;55.652;37.710;2023-02-18T00:16:26;39.83;;;15.82;;
30289;SDS011;17105;55.652;37.710;2023-02-18T00:17:01;44.45;;;16.15;;
30289;SDS011;17105;55.652;37.710;2023-02-18T00:17:35;40.70;;;15.98;;
30289;SDS011;17105;55.652;37.710;2023-02-18T00:18:12;38.78;;;15.75;;
30289;SDS011;17105;55.652;37.710;2023-02-18T00:18:45;44.72;;;16.52;;
30289;SDS011;17105;55.652;37.710;2023-02-18T00:19:20;41.95;;;16.15;;
30289;SDS011;17105;55.652;37.710;2023-02-18T00:19:56;45.25;;;15.60;;
30289;SDS011;17105;55.652;37.710;2023-02-18T00:20:30;42.50;;;15.95;;
30289;SDS011;17105;55.652;37.710;2023-02-18T00:21:05;39.22;;;14.43;;
30289;SDS011;17105;55.652;37.710;2023-02-18T00:21:41;43.22;;;16.75;;
30289;SDS011;17105;55.652;37.710;2023-02-18T00:22:16;46.17;;;17.23;;
30289;SDS011;17105;55.652;37.710;2023-02-18T00:22:52;40.42;;;16.33;;
30289;SDS011;17105;55.652;37.710;2023-02-18T00:23:26;40.22;;;15.88;;
30289;SDS011;17105;55.652;37.710;2023-02-18T00:24:00;38.63;;;16.65;;
30289;SDS011;17105;55.652;37.710;2023-02-18T00:24:36;40.58;;;15.80;;
30289;SDS011;17105;55.652;37.710;2023-02-18T00:25:10;46.55;;;16.48;;
30289;SDS011;17105;55.652;37.710;2023-02-18T00:25:45;40.42;;;15.75;;
30289;SDS011;17105;55.652;37.710;2023-02-18T00:26:20;47.60;;;17.17;;
30289;SDS011;17105;55.652;37.710;2023-02-18T00:26:54;46.92;;;16.17;;
30289;SDS011;17105;55.652;37.710;2023-02-18T00:27:29;39.90;;;17.13;;
30289;SDS011;17105;55.652;37.710;2023-02-18T00:28:05;45.13;;;15.82;;
30289;SDS011;17105;55.652;37.710;2023-02-18T00:28:40;38.13;;;16.92;;
30289;SDS011;17105;55.652;37.710;2023-02-18T00:29:14;40.25;;;16.40;;
30289;SDS011;17105;55.652;37.710;2023-02-18T00:29:49;45.10;;;16.65;;
30289;SDS011;17105;55.652;37.710;2023-02-18T00:30:22;43.83;;;17.10;;
30289;SDS011;17105;55.652;37.710;2023-02-18T00:31:04;46.25;;;16.42;;
30289;SDS011;17105;55.652;37.710;2023-02-18T00:31:39;44.22;;;17.30;;
30289;SDS011;17105;55.652;37.710;2023-02-18T00:32:13;42.45;;;16.65;;
30289;SDS011;17105;55.652;37.710;2023-02-18T00:32:47;45.20;;;17.33;;
30289;SDS011;17105;55.652;37.710;2023-02-18T00:33:22;46.85;;;17.58;;
30289;SDS011;17105;55.652;37.710;2023-02-18T00:33:56;43.10;;;15.73;;
30289;SDS011;17105;55.652;37.710;2023-02-18T00:34:31;44.28;;;16.50;;
30289;SDS011;17105;55.652;37.710;2023-02-18T00:35:08;44.25;;;17.58;;
30289;SDS011;17105;55.652;37.710;2023-02-18T00:35:41;43.65;;;17.13;;
30289;SDS011;17105;55.652;37.710;2023-02-18T00:36:15;43.15;;;17.00;;
30289;SDS011;17105;55.652;37.710;2023-02-18T00:36:52;48.42;;;16.60;;
30289;SDS011;17105;55.652;37.710;2023-02-18T00:37:26;41.45;;;16.15;;
30289;SDS011;17105;55.652;37.710;2023-02-18T00:38:00;40.50;;;15.57;;
30289;SDS011;17105;55.652;37.710;2023-02-18T00:38:34;49.25;;;17.23;;
30289;SDS011;17105;55.652;37.710;2023-02-18T00:39:09;44.40;;;17.25;;
30289;SDS011;17105;55.652;37.710;2023-02-18T00:39:45;45.47;;;17.15;;
30289;SDS011;17105;55.652;37.710;2023-02-18T00:40:20;46.25;;;16.65;;
30289;SDS011;17105;55.652;37.710;2023-02-18T00:40:56;44.05;;;16.40;;
30289;SDS011;17105;55.652;37.710;2023-02-18T00:41:31;40.05;;;15.48;;
30289;SDS011;17105;55.652;37.710;2023-02-18T00:42:04;43.60;;;16.65;;
30289;SDS011;17105;55.652;37.710;2023-02-18T00:42:38;37.80;;;15.43;;
30289;SDS011;17105;55.652;37.710;2023-02-18T00:43:13;54.75;;;16.50;;
30289;SDS011;17105;55.652;37.710;2023-02-18T00:43:49;42.83;;;16.58;;
30289;SDS011;17105;55.652;37.710;2023-02-18T00:44:23;45.70;;;16.58;;
30289;SDS011;17105;55.652;37.710;2023-02-18T00:45:01;42.55;;;16.55;;
30289;SDS011;17105;55.652;37.710;2023-02-18T00:45:35;41.10;;;16.23;;
30289;SDS011;17105;55.652;37.710;2023-02-18T00:46:09;48.20;;;16.60;;
30289;SDS011;17105;55.652;37.710;2023-02-18T00:46:43;41.38;;;16.48;;
30289;SDS011;17105;55.652;37.710;2023-02-18T00:47:19;43.17;;;16.52;;
30289;SDS011;17105;55.652;37.710;2023-02-18T00:47:52;44.08;;;16.83;;
30289;SDS011;17105;55.652;37.710;2023-02-18T00:48:27;45.72;;;16.00;;
30289;SDS011;17105;55.652;37.710;2023-02-18T00:49:04;38.75;;;15.40;;
30289;SDS011;17105;55.652;37.710;2023-02-18T00:49:39;43.33;;;15.90;;
30289;SDS011;17105;55.652;37.710;2023-02-18T00:50:14;47.05;;;15.85;;
30289;SDS011;17105;55.652;37.710;2023-02-18T00:50:47;39.83;;;16.63;;
30289;SDS011;17105;55.652;37.710;2023-02-18T00:51:22;42.75;;;16.98;;
30289;SDS011;17105;55.652;37.710;2023-02-18T00:51:57;44.55;;;17.35;;
30289;SDS011;17105;55.652;37.710;2023-02-18T00:52:30;41.45;;;15.90;;
30289;SDS011;17105;55.652;37.710;2023-02-18T00:53:05;44.53;;;17.35;;
30289;SDS011;17105;55.652;37.710;2023-02-18T00:53:40;41.78;;;15.25;;
30289;SDS011;17105;55.652;37.710;2023-02-18T00:54:13;44.05;;;15.90;;
30289;SDS011;17105;55.652;37.710;2023-02-18T00:54:46;43.58;;;17.05;;
30289;SDS011;17105;55.652;37.710;2023-02-18T00:55:21;45.10;;;16.35;;
30289;SDS011;17105;55.652;37.710;2023-02-18T00:55:56;48.72;;;15.70;;
30289;SDS011;17105;55.652;37.710;2023-02-18T00:56:31;40.45;;;15.10;;
30289;SDS011;17105;55.652;37.710;2023-02-18T00:57:06;45.15;;;15.52;;
30289;SDS011;17105;55.652;37.710;2023-02-18T00:57:40;43.05;;;16.55;;
30289;SDS011;17105;55.652;37.710;2023-02-18T00:58:15;45.05;;;17.23;;
30289;SDS011;17105;55.652;37.710;2023-02-18T00:58:50;42.35;;;15.23;;
30289;SDS011;17105;55.652;37.710;2023-02-18T00:59:24;42.05;;;15.77;;
30289;SDS011;17105;55.652;37.710;2023-02-18T00:59:57;36.17;;;15.38;;
30289;SDS011;17105;55.652;37.710;2023-02-18T01:00:35;39.30;;;15.07;;
30289;SDS011;17105;55.652;37.710;2023-02-18T01:01:09;38.47;;;15.32;;
30289;SDS011;17105;55.652;37.710;2023-02-18T01:01:46;39.47;;;14.57;;
30289;SDS011;17105;55.652;37.710;2023-02-18T01:02:21;41.47;;;14.70;;
30289;SDS011;17105;55.652;37.710;2023-02-18T01:02:56;36.10;;;14.20;;
30289;SDS011;17105;55.652;37.710;2023-02-18T01:03:30;34.58;;;14.43;;
30289;SDS011;17105;55.652;37.710;2023-02-18T01:04:04;47.88;;;15.95;;
30289;SDS011;17105;55.652;37.710;2023-02-18T01:04:38;39.72;;;15.55;;
30289;SDS011;17105;55.652;37.710;2023-02-18T01:05:12;41.53;;;16.02;;
30289;SDS011;17105;55.652;37.710;2023-02-18T01:05:47;42.20;;;15.52;;
30289;SDS011;17105;55.652;37.710;2023-02-18T01:06:21;37.40;;;15.00;;
30289;SDS011;17105;55.652;37.710;2023-02-18T01:06:57;40.72;;;14.57;;
30289;SDS011;17105;55.652;37.710;2023-02-18T01:07:32;42.05;;;15.68;;
30289;SDS011;17105;55.652;37.710;2023-02-18T01:08:07;39.00;;;15.63;;
30289;SDS011;17105;55.652;37.710;2023-02-18T01:08:41;46.05;;;16.60;;
30289;SDS011;17105;55.652;37.710;2023-02-18T01:09:15;39.92;;;15.63;;
30289;SDS011;17105;55.652;37.710;2023-02-18T01:09:49;42.42;;;16.13;;
30289;SDS011;17105;55.652;37.710;2023-02-18T01:10:24;42.13;;;16.40;;
30289;SDS011;17105;55.652;37.710;2023-02-18T01:11:00;43.92;;;15.93;;
30289;SDS011;17105;55.652;37.710;2023-02-18T01:11:34;44.35;;;15.95;;
30289;SDS011;17105;55.652;37.710;2023-02-18T01:12:09;45.42;;;16.10;;
30289;SDS011;17105;55.652;37.710;2023-02-18T01:12:44;41.13;;;15.73;;
30289;SDS011;17105;55.652;37.710;2023-02-18T01:13:17;43.72;;;15.98;;
30289;SDS011;17105;55.652;37.710;2023-02-18T01:13:51;44.10;;;15.63;;
30289;SDS011;17105;55.652;37.710;2023-02-18T01:14:25;42.10;;;15.82;;
30289;SDS011;17105;55.652;37.710;2023-02-18T01:15:01;43.70;;;16.20;;
30289;SDS011;17105;55.652;37.710;2023-02-18T01:15:36;43.47;;;16.17;;
30289;SDS011;17105;55.652;37.710;2023-02-18T01:16:09;46.15;;;16.88;;
30289;SDS011;17105;55.652;37.710;2023-02-18T01:16:43;41.25;;;15.52;;
30289;SDS011;17105;55.652;37.710;2023-02-18T01:17:17;44.55;;;15.38;;
30289;SDS011;17105;55.652;37.710;2023-02-18T01:17:51;39.10;;;15.93;;
30289;SDS011;17105;55.652;37.710;2023-02-18T01:18:26;42.83;;;16.60;;
30289;SDS011;17105;55.652;37.710;2023-02-18T01:18:59;47.08;;;16.65;;
30289;SDS011;17105;55.652;37.710;2023-02-18T01:19:32;42.38;;;15.68;;
30289;SDS011;17105;55.652;37.710;2023-02-18T01:20:08;44.80;;;16.02;;
30289;SDS011;17105;55.652;37.710;2023-02-18T01:20:41;43.97;;;16.38;;
30289;SDS011;17105;55.652;37.710;2023-02-18T01:21:16;46.25;;;16.52;;
30289;SDS011;17105;55.652;37.710;2023-02-18T01:21:51;39.90;;;15.07;;
30289;SDS011;17105;55.652;37.710;2023-02-18T01:22:25;47.72;;;16.35;;
30289;SDS011;17105;55.652;37.710;2023-02-18T01:23:00;47.72;;;17.10;;
30289;SDS011;17105;55.652;37.710;2023-02-18T01:23:34;41.20;;;15.88;;
30289;SDS011;17105;55.652;37.710;2023-02-18T01:24:08;42.65;;;15.85;;
30289;SDS011;17105;55.652;37.710;2023-02-18T01:24:42;39.47;;;15.02;;
30289;SDS011;17105;55.652;37.710;2023-02-18T01:25:18;40.08;;;14.95;;
30289;SDS011;17105;55.652;37.710;2023-02-18T01:25:51;43.08;;;16.60;;
30289;SDS011;17105;55.652;37.710;2023-02-18T01:26:26;42.50;;;15.60;;
30289;SDS011;17105;55.652;37.710;2023-02-18T01:27:02;43.67;;;16.73;;
30289;SDS011;17105;55.652;37.710;2023-02-18T01:27:35;39.80;;;15.43;;
30289;SDS011;17105;55.652;37.710;2023-02-18T01:28:09;40.83;;;16.67;;
30289;SDS011;17105;55.652;37.710;2023-02-18T01:28:44;41.60;;;16.13;;
30289;SDS011;17105;55.652;37.710;2023-02-18T01:29:18;42.80;;;15.20;;
30289;SDS011;17105;55.652;37.710;2023-02-18T01:29:53;39.33;;;16.20;;
30289;SDS011;17105;55.652;37.710;2023-02-18T01:30:28;47.03;;;16.70;;
30289;SDS011;17105;55.652;37.710;2023-02-18T01:31:03;41.38;;;16.80;;
30289;SDS011;17105;55.652;37.710;2023-02-18T01:31:37;43.60;;;16.25;;
30289;SDS011;17105;55.652;37.710;2023-02-18T01:32:13;44.40;;;15.70;;
30289;SDS011;17105;55.652;37.710;2023-02-18T01:32:47;40.60;;;16.45;;
30289;SDS011;17105;55.652;37.710;2023-02-18T01:33:21;39.20;;;15.57;;
30289;SDS011;17105;55.652;37.710;2023-02-18T01:33:56;45.72;;;16.30;;
30289;SDS011;17105;55.652;37.710;2023-02-18T01:34:33;39.70;;;15.88;;
30289;SDS011;17105;55.652;37.710;2023-02-18T01:35:09;41.10;;;15.50;;
30289;SDS011;17105;55.652;37.710;2023-02-18T01:35:44;40.42;;;15.48;;
30289;SDS011;17105;55.652;37.710;2023-02-18T01:36:17;45.50;;;16.15;;
30289;SDS011;17105;55.652;37.710;2023-02-18T01:36:51;38.80;;;15.38;;
30289;SDS011;17105;55.652;37.710;2023-02-18T01:37:25;37.58;;;14.98;;
30289;SDS011;17105;55.652;37.710;2023-02-18T01:37:58;42.35;;;16.05;;
30289;SDS011;17105;55.652;37.710;2023-02-18T01:38:32;42.70;;;16.15;;
30289;SDS011;17105;55.652;37.710;2023-02-18T01:39:07;37.75;;;14.00;;
30289;SDS011;17105;55.652;37.710;2023-02-18T01:39:41;39.35;;;15.55;;
30289;SDS011;17105;55.652;37.710;2023-02-18T01:40:17;41.45;;;15.75;;
30289;SDS011;17105;55.652;37.710;2023-02-18T01:40:52;44.97;;;16.15;;
30289;SDS011;17105;55.652;37.710;2023-02-18T01:41:27;42.55;;;15.82;;
30289;SDS011;17105;55.652;37.710;2023-02-18T01:42:01;38.35;;;13.93;;
30289;SDS011;17105;55.652;37.710;2023-02-18T01:42:35;40.67;;;15.95;;
30289;SDS011;17105;55.652;37.710;2023-02-18T01:43:09;38.45;;;15.00;;
30289;SDS011;17105;55.652;37.710;2023-02-18T01:43:42;39.78;;;15.65;;
30289;SDS011;17105;55.652;37.710;2023-02-18T01:44:17;48.70;;;15.77;;
30289;SDS011;17105;55.652;37.710;2023-02-18T01:44:51;41.15;;;16.02;;
30289;SDS011;17105;55.652;37.710;2023-02-18T01:46:17;43.08;;;15.85;;
30289;SDS011;17105;55.652;37.710;2023-02-18T01:46:52;42.60;;;15.57;;
30289;SDS011;17105;55.652;37.710;2023-02-18T01:47:27;36.70;;;15.85;;
30289;SDS011;17105;55.652;37.710;2023-02-18T01:48:01;39.25;;;15.88;;
30289;SDS011;17105;55.652;37.710;2023-02-18T01:48:40;43.20;;;15.98;;
30289;SDS011;17105;55.652;37.710;2023-02-18T01:49:15;41.65;;;15.73;;
30289;SDS011;17105;55.652;37.710;2023-02-18T01:49:51;41.95;;;15.88;;
30289;SDS011;17105;55.652;37.710;2023-02-18T01:50:25;46.35;;;17.13;;
30289;SDS011;17105;55.652;37.710;2023-02-18T01:51:01;41.92;;;16.50;;
30289;SDS011;17105;55.652;37.710;2023-02-18T01:51:38;41.13;;;16.40;;
30289;SDS011;17105;55.652;37.710;2023-02-18T01:52:13;46.90;;;17.63;;
30289;SDS011;17105;55.652;37.710;2023-02-18T01:52:48;46.15;;;18.35;;
30289;SDS011;17105;55.652;37.710;2023-02-18T01:53:23;44.47;;;17.52;;
30289;SDS011;17105;55.652;37.710;2023-02-18T01:54:00;45.25;;;17.92;;
30289;SDS011;17105;55.652;37.710;2023-02-18T01:54:39;34.08;;;14.05;;
30289;SDS011;17105;55.652;37.710;2023-02-18T01:55:13;46.60;;;18.40;;
30289;SDS011;17105;55.652;37.710;2023-02-18T01:55:47;46.72;;;17.92;;
30289;SDS011;17105;55.652;37.710;2023-02-18T01:56:22;50.67;;;19.42;;
30289;SDS011;17105;55.652;37.710;2023-02-18T01:57:00;47.50;;;19.00;;
30289;SDS011;17105;55.652;37.710;2023-02-18T01:57:34;52.17;;;19.83;;
30289;SDS011;17105;55.652;37.710;2023-02-18T01:58:11;55.47;;;20.30;;
30289;SDS011;17105;55.652;37.710;2023-02-18T01:58:46;58.65;;;20.75;;
30289;SDS011;17105;55.652;37.710;2023-02-18T01:59:23;51.17;;;20.70;;
30289;SDS011;17105;55.652;37.710;2023-02-18T02:00:00;49.08;;;19.75;;
30289;SDS011;17105;55.652;37.710;2023-02-18T02:00:45;53.05;;;20.38;;
30289;SDS011;17105;55.652;37.710;2023-02-18T02:01:19;50.50;;;21.23;;
30289;SDS011;17105;55.652;37.710;2023-02-18T02:01:54;61.20;;;21.70;;
30289;SDS011;17105;55.652;37.710;2023-02-18T02:02:29;55.65;;;19.50;;
30289;SDS011;17105;55.652;37.710;2023-02-18T02:03:05;45.65;;;19.02;;
30289;SDS011;17105;55.652;37.710;2023-02-18T02:03:39;48.60;;;19.23;;
30289;SDS011;17105;55.652;37.710;2023-02-18T02:04:13;50.40;;;20.13;;
30289;SDS011;17105;55.652;37.710;2023-02-18T02:04:46;54.20;;;20.17;;
30289;SDS011;17105;55.652;37.710;2023-02-18T02:05:21;50.20;;;19.65;;
30289;SDS011;17105;55.652;37.710;2023-02-18T02:05:55;52.10;;;19.63;;
30289;SDS011;17105;55.652;37.710;2023-02-18T02:06:30;50.78;;;20.17;;
30289;SDS011;17105;55.652;37.710;2023-02-18T02:07:05;52.42;;;20.00;;
30289;SDS011;17105;55.652;37.710;2023-02-18T02:07:39;49.67;;;18.63;;
30289;SDS011;17105;55.652;37.710;2023-02-18T02:08:13;47.35;;;18.88;;
30289;SDS011;17105;55.652;37.710;2023-02-18T02:08:46;48.85;;;19.40;;
30289;SDS011;17105;55.652;37.710;2023-02-18T02:09:21;45.08;;;18.60;;
30289;SDS011;17105;55.652;37.710;2023-02-18T02:09:56;48.65;;;18.85;;
30289;SDS011;17105;55.652;37.710;2023-02-18T02:10:33;43.42;;;17.83;;
30289;SDS011;17105;55.652;37.710;2023-02-18T02:11:18;46.67;;;18.85;;
30289;SDS011;17105;55.652;37.710;2023-02-18T02:12:04;45.33;;;17.60;;
30289;SDS011;17105;55.652;37.710;2023-02-18T02:12:46;43.78;;;16.85;;
30289;SDS011;17105;55.652;37.710;2023-02-18T02:13:25;42.95;;;16.63;;
30289;SDS011;17105;55.652;37.710;2023-02-18T02:14:06;47.33;;;16.85;;
30289;SDS011;17105;55.652;37.710;2023-02-18T02:14:52;47.95;;;17.60;;
30289;SDS011;17105;55.652;37.710;2023-02-18T02:15:32;46.63;;;17.75;;
30289;SDS011;17105;55.652;37.710;2023-02-18T02:16:08;43.35;;;17.08;;
30289;SDS011;17105;55.652;37.710;2023-02-18T02:16:48;44.55;;;15.68;;
30289;SDS011;17105;55.652;37.710;2023-02-18T02:17:27;43.92;;;16.98;;
30289;SDS011;17105;55.652;37.710;2023-02-18T02:18:43;39.78;;;14.98;;
30289;SDS011;17105;55.652;37.710;2023-02-18T02:20:23;41.70;;;15.82;;
30289;SDS011;17105;55.652;37.710;2023-02-18T02:21:10;47.90;;;15.98;;
30289;SDS011;17105;55.652;37.710;2023-02-18T02:22:09;33.28;;;13.13;;
30289;SDS011;17105;55.652;37.710;2023-02-18T02:24:57;38.45;;;14.88;;
30289;SDS011;17105;55.652;37.710;2023-02-18T02:25:50;37.55;;;14.55;;
30289;SDS011;17105;55.652;37.710;2023-02-18T02:27:28;40.80;;;15.23;;
30289;SDS011;17105;55.652;37.710;2023-02-18T02:28:36;42.38;;;15.48;;
30289;SDS011;17105;55.652;37.710;2023-02-18T02:29:34;42.10;;;14.43;;
30289;SDS011;17105;55.652;37.710;2023-02-18T02:30:27;35.80;;;13.75;;
30289;SDS011;17105;55.652;37.710;2023-02-18T02:31:27;43.58;;;14.88;;
30289;SDS011;17105;55.652;37.710;2023-02-18T02:33:23;46.95;;;17.10;;
30289;SDS011;17105;55.652;37.710;2023-02-18T02:34:23;38.78;;;15.60;;
30289;SDS011;17105;55.652;37.710;2023-02-18T02:35:02;42.17;;;15.55;;
30289;SDS011;17105;55.652;37.710;2023-02-18T02:35:38;47.75;;;15.98;;
30289;SDS011;17105;55.652;37.710;2023-02-18T02:36:15;47.85;;;16.80;;
30289;SDS011;17105;55.652;37.710;2023-02-18T02:36:52;45.22;;;15.70;;
30289;SDS011;17105;55.652;37.710;2023-02-18T02:37:30;46.45;;;16.83;;
30289;SDS011;17105;55.652;37.710;2023-02-18T02:38:09;36.45;;;15.32;;
30289;SDS011;17105;55.652;37.710;2023-02-18T02:38:48;51.95;;;17.75;;
30289;SDS011;17105;55.652;37.710;2023-02-18T02:39:27;43.75;;;16.48;;
30289;SDS011;17105;55.652;37.710;2023-02-18T02:40:06;45.03;;;16.27;;
30289;SDS011;17105;55.652;37.710;2023-02-18T02:40:43;44.03;;;16.48;;
30289;SDS011;17105;55.652;37.710;2023-02-18T02:41:21;39.97;;;15.90;;
30289;SDS011;17105;55.652;37.710;2023-02-18T02:42:01;43.38;;;16.75;;
30289;SDS011;17105;55.652;37.710;2023-02-18T02:42:39;45.95;;;16.20;;
30289;SDS011;17105;55.652;37.710;2023-02-18T02:43:25;46.40;;;17.17;;
30289;SDS011;17105;55.652;37.710;2023-02-18T02:44:03;34.40;;;12.43;;
30289;SDS011;17105;55.652;37.710;2023-02-18T02:44:43;45.15;;;17.25;;
30289;SDS011;17105;55.652;37.710;2023-02-18T02:45:21;47.42;;;16.55;;
30289;SDS011;17105;55.652;37.710;2023-02-18T02:45:57;50.40;;;17.75;;
30289;SDS011;17105;55.652;37.710;2023-02-18T02:46:35;46.25;;;17.90;;
30289;SDS011;17105;55.652;37.710;2023-02-18T02:47:10;47.67;;;17.55;;
30289;SDS011;17105;55.652;37.710;2023-02-18T02:47:48;46.42;;;17.10;;
30289;SDS011;17105;55.652;37.710;2023-02-18T02:48:26;44.88;;;18.20;;
30289;SDS011;17105;55.652;37.710;2023-02-18T02:49:05;54.00;;;17.48;;
30289;SDS011;17105;55.652;37.710;2023-02-18T02:49:46;46.75;;;17.20;;
30289;SDS011;17105;55.652;37.710;2023-02-18T02:50:23;43.17;;;17.20;;
30289;SDS011;17105;55.652;37.710;2023-02-18T02:51:02;52.80;;;16.77;;
30289;SDS011;17105;55.652;37.710;2023-02-18T02:51:39;48.13;;;17.65;;
30289;SDS011;17105;55.652;37.710;2023-02-18T02:52:16;47.17;;;17.48;;
30289;SDS011;17105;55.652;37.710;2023-02-18T02:52:54;52.72;;;19.17;;
30289;SDS011;17105;55.652;37.710;2023-02-18T02:53:32;56.13;;;18.30;;
30289;SDS011;17105;55.652;37.710;2023-02-18T02:54:09;48.50;;;18.05;;
30289;SDS011;17105;55.652;37.710;2023-02-18T02:54:43;49.45;;;17.33;;
30289;SDS011;17105;55.652;37.710;2023-02-18T02:55:18;52.95;;;18.27;;
30289;SDS011;17105;55.652;37.710;2023-02-18T02:55:55;53.58;;;18.98;;
30289;SDS011;17105;55.652;37.710;2023-02-18T02:56:29;52.92;;;19.63;;
30289;SDS011;17105;55.652;37.710;2023-02-18T02:57:06;48.22;;;18.52;;
30289;SDS011;17105;55.652;37.710;2023-02-18T02:57:51;47.25;;;18.83;;
30289;SDS011;17105;55.652;37.710;2023-02-18T02:58:30;54.75;;;19.40;;
30289;SDS011;17105;55.652;37.710;2023-02-18T02:59:06;58.08;;;20.48;;
30289;SDS011;17105;55.652;37.710;2023-02-18T02:59:46;53.63;;;20.08;;
30289;SDS011;17105;55.652;37.710;2023-02-18T03:00:24;55.63;;;19.17;;
30289;SDS011;17105;55.652;37.710;2023-02-18T03:01:06;52.65;;;19.13;;
30289;SDS011;17105;55.652;37.710;2023-02-18T03:01:46;47.92;;;18.08;;
30289;SDS011;17105;55.652;37.710;2023-02-18T03:02:24;49.97;;;18.10;;
30289;SDS011;17105;55.652;37.710;2023-02-18T03:03:11;52.20;;;18.45;;
30289;SDS011;17105;55.652;37.710;2023-02-18T03:04:49;53.85;;;19.30;;
30289;SDS011;17105;55.652;37.710;2023-02-18T03:05:30;52.88;;;18.15;;
30289;SDS011;17105;55.652;37.710;2023-02-18T03:06:21;53.00;;;19.15;;
30289;SDS011;17105;55.652;37.710;2023-02-18T03:07:06;50.08;;;17.30;;
30289;SDS011;17105;55.652;37.710;2023-02-18T03:07:52;51.45;;;18.85;;
30289;SDS011;17105;55.652;37.710;2023-02-18T03:08:29;54.05;;;19.20;;
30289;SDS011;17105;55.652;37.710;2023-02-18T03:09:09;60.22;;;19.15;;
30289;SDS011;17105;55.652;37.710;2023-02-18T03:09:53;60.33;;;20.40;;
30289;SDS011;17105;55.652;37.710;2023-02-18T03:10:35;53.10;;;19.58;;
30289;SDS011;17105;55.652;37.710;2023-02-18T03:11:15;52.72;;;20.10;;
30289;SDS011;17105;55.652;37.710;2023-02-18T03:11:52;56.53;;;20.33;;
30289;SDS011;17105;55.652;37.710;2023-02-18T03:12:28;53.35;;;18.48;;
30289;SDS011;17105;55.652;37.710;2023-02-18T03:13:13;50.33;;;18.30;;
30289;SDS011;17105;55.652;37.710;2023-02-18T03:13:53;48.10;;;18.90;;
30289;SDS011;17105;55.652;37.710;2023-02-18T03:14:39;51.33;;;18.65;;
30289;SDS011;17105;55.652;37.710;2023-02-18T03:15:19;50.85;;;19.17;;
30289;SDS011;17105;55.652;37.710;2023-02-18T03:15:55;54.17;;;19.58;;
30289;SDS011;17105;55.652;37.710;2023-02-18T03:16:34;55.90;;;19.85;;
30289;SDS011;17105;55.652;37.710;2023-02-18T03:17:10;52.58;;;19.52;;
30289;SDS011;17105;55.652;37.710;2023-02-18T03:17:47;52.63;;;18.85;;
30289;SDS011;17105;55.652;37.710;2023-02-18T03:18:26;51.58;;;20.05;;
30289;SDS011;17105;55.652;37.710;2023-02-18T03:19:39;48.17;;;18.48;;
30289;SDS011;17105;55.652;37.710;2023-02-18T03:20:22;52.80;;;18.73;;
30289;SDS011;17105;55.652;37.710;2023-02-18T03:21:01;55.08;;;19.40;;
30289;SDS011;17105;55.652;37.710;2023-02-18T03:21:38;49.38;;;18.83;;
30289;SDS011;17105;55.652;37.710;2023-02-18T03:22:17;52.53;;;17.88;;
30289;SDS011;17105;55.652;37.710;2023-02-18T03:22:54;52.00;;;18.05;;
30289;SDS011;17105;55.652;37.710;2023-02-18T03:23:31;56.17;;;20.02;;
30289;SDS011;17105;55.652;37.710;2023-02-18T03:24:08;50.65;;;19.23;;
30289;SDS011;17105;55.652;37.710;2023-02-18T03:24:45;58.13;;;20.23;;
30289;SDS011;17105;55.652;37.710;2023-02-18T03:25:19;57.25;;;20.20;;
30289;SDS011;17105;55.652;37.710;2023-02-18T03:25:54;52.90;;;19.83;;
30289;SDS011;17105;55.652;37.710;2023-02-18T03:26:30;52.63;;;18.85;;
30289;SDS011;17105;55.652;37.710;2023-02-18T03:27:07;52.00;;;19.70;;
30289;SDS011;17105;55.652;37.710;2023-02-18T03:27:43;51.00;;;19.15;;
30289;SDS011;17105;55.652;37.710;2023-02-18T03:28:19;48.67;;;19.50;;
30289;SDS011;17105;55.652;37.710;2023-02-18T03:28:54;54.65;;;19.20;;
30289;SDS011;17105;55.652;37.710;2023-02-18T03:29:29;49.90;;;18.92;;
30289;SDS011;17105;55.652;37.710;2023-02-18T03:30:07;58.53;;;19.35;;
30289;SDS011;17105;55.652;37.710;2023-02-18T03:30:43;51.42;;;18.00;;
30289;SDS011;17105;55.652;37.710;2023-02-18T03:31:19;50.92;;;20.13;;
30289;SDS011;17105;55.652;37.710;2023-02-18T03:31:56;50.55;;;18.48;;
30289;SDS011;17105;55.652;37.710;2023-02-18T03:32:31;54.20;;;18.27;;
30289;SDS011;17105;55.652;37.710;2023-02-18T03:33:08;53.90;;;19.40;;
30289;SDS011;17105;55.652;37.710;2023-02-18T03:33:44;54.80;;;20.13;;
30289;SDS011;17105;55.652;37.710;2023-02-18T03:34:21;45.80;;;17.98;;
30289;SDS011;17105;55.652;37.710;2023-02-18T03:34:58;49.58;;;19.08;;
30289;SDS011;17105;55.652;37.710;2023-02-18T03:35:36;53.60;;;19.05;;
30289;SDS011;17105;55.652;37.710;2023-02-18T03:36:11;51.42;;;18.52;;
30289;SDS011;17105;55.652;37.710;2023-02-18T03:36:48;47.75;;;18.08;;
30289;SDS011;17105;55.652;37.710;2023-02-18T03:37:22;52.33;;;20.67;;
30289;SDS011;17105;55.652;37.710;2023-02-18T03:37:58;48.97;;;18.63;;
30289;SDS011;17105;55.652;37.710;2023-02-18T03:38:35;47.58;;;17.95;;
30289;SDS011;17105;55.652;37.710;2023-02-18T03:39:13;48.38;;;19.17;;